Lykens, Ohio
Current Conditions -  °F | °C
As of 11:53 AM on Thursday 30 Oct 2014 (Local Time) from KMNN Reporting Station
Broken Clouds Broken Clouds  
Wind Chill: 47°   Ceiling: 4000
Heat Index: 47°   Visibility: 10mi
Dew Point: 35°   Wind: 3mph
Humidity: 63%   Direction: NA
Pressure: 30.15"   Gusts: NA
Location:  40.9956°N, 82.9974°W
Report Text: KMNN 301553Z AUTO VRB03KT 10SM FEW025 BKN040 08/02 A3015 RMK AO2 SLP214 T00830017 TSNO
Loading
Personal Weather Stations






























Interactive Weather Map
Tropical Storm Tracking
New forecast layout! Learn more

10-Day Weather Forecast

Advertisements
Track Severe Weather on mobile